Flight Track Log - Related Links

Times and Time Zones

All times are in EDT time to prevent confusion due to time zone crossing. See the THY2572 flight status page for this flight to view local times or setup timezone preferences in your user account.

Time Position Orientation Groundspeed Altitude Reporting Facility
EDT Latitude Longitude Course Direction KTS MPH feet Rate Location/Type
Wed 05:16:00 PM 40.2509 28.8160 180° South  Level Estimated
Wed 05:17:00 PM 40.1602 28.8154 180° South  Level Estimated
Wed 05:18:00 PM 40.0695 28.8147 180° South  Level Estimated
Wed 05:19:00 PM 39.9787 28.8141 180° South  Level Estimated
Wed 05:20:00 PM 39.8880 28.8135 180° South  Level Estimated
Wed 05:21:00 PM 39.7972 28.8128 180° South  Level Estimated
Wed 05:22:00 PM 39.7065 28.8122 180° South  Level Estimated
Wed 05:23:00 PM 39.6158 28.8116 180° South  Level Estimated
Wed 05:24:00 PM 39.5250 28.8110 180° South  Level Estimated
Wed 05:25:00 PM 39.4343 28.8104 180° South  Level Estimated
Wed 05:26:00 PM 39.3435 28.8097 180° South  Level Estimated
Wed 05:27:00 PM 39.2528 28.8091 180° South  Level Estimated
Wed 05:28:00 PM 39.1621 28.8085 180° South  Level Estimated
Wed 05:29:00 PM 39.0713 28.8079 180° South  Level Estimated
Wed 05:30:00 PM 38.9806 28.8073 180° South  Level Estimated
Wed 05:31:00 PM 38.8898 28.8067 180° South  Level Estimated
Wed 05:32:00 PM 38.7991 28.8061 180° South  Level Estimated
Wed 05:33:00 PM 38.7084 28.8055 180° South  Level Estimated
Wed 05:34:00 PM 38.6176 28.8049 180° South  Level Estimated
Wed 05:35:00 PM 38.5269 28.8043 180° South  Level Estimated
Wed 05:36:00 PM 38.4361 28.8037 180° South  Level Estimated
Wed 05:37:00 PM 38.3454 28.8031 180° South  Level Estimated
Wed 05:38:00 PM 38.2547 28.8025 180° South  Level Estimated
Wed 05:39:00 PM 38.1639 28.8019 180° South  Level Estimated
Wed 05:40:00 PM 38.0732 28.8013 180° South  Level Estimated
Wed 05:41:00 PM 37.9824 28.8007 180° South  Level Estimated
Wed 05:42:00 PM 37.8917 28.8001 180° South  Level Estimated
Wed 05:43:00 PM 37.8010 28.7995 180° South  Level Estimated
Wed 05:44:00 PM 37.7102 28.7989 180° South  Level Estimated
Wed 05:45:00 PM 37.6195 28.7983 180° South  Level Estimated
Wed 05:46:00 PM 37.5287 28.7977 180° South  Level Estimated
Wed 05:47:00 PM 37.4380 28.7971 180° South  Level Estimated
Wed 05:48:00 PM 37.3473 28.7966 180° South  Level Estimated
Wed 05:49:00 PM 37.2565 28.7960 180° South  Level Estimated
Wed 05:50:00 PM 37.1658 28.7954 180° South  Level Estimated
Wed 05:51:00 PM 37.0750 28.7948 180° South  Level Estimated
Wed 05:52:00 PM 36.9843 28.7942 180° South  Level Estimated
Wed 05:53:00 PM 36.8936 28.7936 180° South  Level Estimated
Wed 05:54:00 PM 36.8028 28.7931 180° South  Level Estimated
Wed 05:55:00 PM 36.7131 28.7925 180° South  Level Estimated
Wed 05:56:00 PM 36.7131 28.7925 180° South  Level Estimated
Wed 05:57:00 PM 36.7131 28.7925 180° South  Level Estimated
Wed 05:58:00 PM 36.7131 28.7925 180° South  Level Estimated
Wed 05:59:00 PM 36.7131 28.7925 180° South  Level Estimated
Wed 06:00:00 PM 36.7131 28.7925 180° South  Level Estimated
Wed 06:01:00 PM 36.7131 28.7925 180° South  Level Estimated
Wed 06:02:00 PM 36.7131 28.7925 180° South  Level Estimated
Wed 06:03:00 PM 36.7131 28.7925 180° South  Level Estimated
Wed 06:04:00 PM 36.7131 28.7925 180° South  Level Estimated
Wed 06:05:00 PM 36.7131 28.7925 180° South  Level Estimated
Wed 06:06:00 PM 36.7131 28.7925 180° South  Level Estimated
Wed 06:07:00 PM 36.7131 28.7925 180° South  Level Estimated
Wed 06:08:00 PM 36.7131 28.7925 180° South  Level Estimated
Wed 06:09:00 PM 36.7131 28.7925 180° South  Level Estimated
Wed 06:10:00 PM 36.7131 28.7925 180° South  Level Estimated
Wed 06:11:00 PM 36.7131 28.7925 180° South  Level Estimated

Login

Don't have an account? Register now (free) for customized features, flight alerts, and more!